UTDDUTSS

Guest
Details From UTDD - DUSHANBE
To UTSS - SAMARKAND
Flight Number -
Tags generated
Created
Modified
Stats Distance 110 nm / 205 km
Max Altitude 6,700 ft / 2,042 m
Waypoints 3
Social Downloads 0
Likes 0
Share VATSIM

Download

Looking for another format? Having issues loading an existing format? Contact us
Advertisement - Login to hide

Notes

Basic altitude profile: - Ascent Rate: 2500ft/min - Ascent Speed: 250kts - Cruise Altitude: 35000ft - Cruise Speed: 420kts - Descent Rate: 1500ft/min - Descent Speed: 250kts Options: - Use NATs: yes - Use PACOTS: yes - Use low airways: yes - Use high airways: yes

Route

UTDD BUTRA UTSS

ID Type Via Altitude Latitude Longitude Leg Dist Tot Dist Heading (true) Name
O UTDD APT - 0 ft / 0 m 38.54349˚ 68.82464˚ - 0 nm - DUSHANBE
BUTRA FIX - 6,700 ft / 2,042 m 39.35000˚ 67.48333˚ 79 nm 79 nm 308° / 307° -
O UTSS APT - 0 ft / 0 m 39.70055˚ 66.98383˚ 31 nm 110 nm 312° / 312° SAMARKAND

Altitude Profile

Advertisement - Login to hide

UTDD

Details ICAO UTDD (DYU)
Name DUSHANBE
Region Tajikistan, Turkmenistan and Uzbekistan
Timezone Asia/Dushanbe (UTC+5.0)
Stats Elevation 2,575 ft / 785 m (AMSL)
Location 38.543486° 68.824637°
Runways 1
Magnetic Variation 4.445° E

METAR

UTDD 180330Z VRB02MPS 3800 FU FEW066 SCT100 06/M01 Q1027 R09/D NOSIG RMK QFE701/0935

Decode

TAF

TAF TAF UTDD 180300Z 1804/1816 VRB02MPS 5000 BR FU SCT066CB BKN100 TEMPO 1804/1807 1500 BR FU

Decode

Departure Runways

ID Width Length Bearing (true) Bearing (mag) Surface Threshold Offset Overrun Length
09 147 ft / 45 m 10,157 ft / 3,096 m 90.06° 85.61° Asphalt 0 ft / 0 m 0 ft / 0 m
27 147 ft / 45 m 10,157 ft / 3,096 m 270.08° 265.63° Asphalt 1,335 ft / 407 m 0 ft / 0 m

UTSS

Details ICAO UTSS (SKD)
Name SAMARKAND
Region Tajikistan, Turkmenistan and Uzbekistan
Timezone Asia/Samarkand (UTC+5.0)
Stats Elevation 2,224 ft / 678 m (AMSL)
Location 39.700547° 66.983829°
Runways 1
Magnetic Variation 5.018° E

METAR

UTSS 180330Z 11004KT 7000 NSC 01/M02 Q1026 R09/70D NOSIG

Decode

TAF

TAF UTSS 172300Z 1800/1824 12010G20KT 9999 SCT033 BKN100 TEMPO 1800/1806 3000 BR SCT008

Decode

Destination Runways

ID Width Length Bearing (true) Bearing (mag) Surface Threshold Offset Overrun Length
09 161 ft / 49 m 10,189 ft / 3,106 m 95.70° 90.68° Asphalt 0 ft / 0 m 200 ft / 61 m
27 161 ft / 49 m 10,189 ft / 3,106 m 275.72° 270.70° Asphalt 0 ft / 0 m 200 ft / 61 m

Approach Navaids

Runway Type Ident Frequency Range Bearing (true) Bearing (mag) Slope Elevation
09 Localiser IMZ 109.50 MHz 18 nm / 33 km 95.86° 90.84° - 2,224 ft / 678 m (AMSL)
09 Glidescope IMZ 109.50 MHz 10 nm / 19 km 95.71° 90.69° 3.00° 2,224 ft / 678 m (AMSL)